sensor_id;sensor_type;location;lat;lon;timestamp;P1;durP1;ratioP1;P2;durP2;ratioP2
11962;SDS011;62678;52.130;5.584;2023-12-28T00:01:52;5.78;;;2.85;;
11962;SDS011;62678;52.130;5.584;2023-12-28T00:04:19;6.85;;;2.67;;
11962;SDS011;62678;52.130;5.584;2023-12-28T00:06:46;4.13;;;2.70;;
11962;SDS011;62678;52.130;5.584;2023-12-28T00:09:13;3.92;;;3.13;;
11962;SDS011;62678;52.130;5.584;2023-12-28T00:11:42;4.45;;;2.83;;
11962;SDS011;62678;52.130;5.584;2023-12-28T00:14:09;5.45;;;2.90;;
11962;SDS011;62678;52.130;5.584;2023-12-28T00:16:36;6.00;;;3.03;;
11962;SDS011;62678;52.130;5.584;2023-12-28T00:19:03;5.50;;;3.13;;
11962;SDS011;62678;52.130;5.584;2023-12-28T00:21:31;5.50;;;2.90;;
11962;SDS011;62678;52.130;5.584;2023-12-28T00:23:58;5.25;;;2.90;;
11962;SDS011;62678;52.130;5.584;2023-12-28T00:26:25;5.55;;;2.90;;
11962;SDS011;62678;52.130;5.584;2023-12-28T00:28:54;8.10;;;3.47;;
11962;SDS011;62678;52.130;5.584;2023-12-28T00:31:21;6.85;;;3.53;;
11962;SDS011;62678;52.130;5.584;2023-12-28T00:33:48;4.13;;;2.67;;
11962;SDS011;62678;52.130;5.584;2023-12-28T00:36:15;4.10;;;2.95;;
11962;SDS011;62678;52.130;5.584;2023-12-28T00:38:42;4.40;;;2.80;;
11962;SDS011;62678;52.130;5.584;2023-12-28T00:41:09;6.75;;;3.17;;
11962;SDS011;62678;52.130;5.584;2023-12-28T00:43:36;3.42;;;2.78;;
11962;SDS011;62678;52.130;5.584;2023-12-28T00:46:05;7.10;;;2.97;;
11962;SDS011;62678;52.130;5.584;2023-12-28T00:48:32;6.60;;;3.50;;
11962;SDS011;62678;52.130;5.584;2023-12-28T00:50:59;5.97;;;3.33;;
11962;SDS011;62678;52.130;5.584;2023-12-28T00:53:26;5.03;;;3.00;;
11962;SDS011;62678;52.130;5.584;2023-12-28T00:55:53;6.05;;;3.10;;
11962;SDS011;62678;52.130;5.584;2023-12-28T00:58:21;6.18;;;2.80;;
11962;SDS011;62678;52.130;5.584;2023-12-28T01:00:48;6.68;;;3.20;;
11962;SDS011;62678;52.130;5.584;2023-12-28T01:03:19;6.22;;;3.25;;
11962;SDS011;62678;52.130;5.584;2023-12-28T01:05:46;6.60;;;3.05;;
11962;SDS011;62678;52.130;5.584;2023-12-28T01:08:15;7.03;;;3.50;;
11962;SDS011;62678;52.130;5.584;2023-12-28T01:10:43;7.32;;;3.55;;
11962;SDS011;62678;52.130;5.584;2023-12-28T01:13:10;10.10;;;3.08;;
11962;SDS011;62678;52.130;5.584;2023-12-28T01:15:37;4.00;;;3.03;;
11962;SDS011;62678;52.130;5.584;2023-12-28T01:18:03;10.90;;;3.70;;
11962;SDS011;62678;52.130;5.584;2023-12-28T01:20:32;5.93;;;3.13;;
11962;SDS011;62678;52.130;5.584;2023-12-28T01:22:59;7.90;;;3.33;;
11962;SDS011;62678;52.130;5.584;2023-12-28T01:25:27;6.18;;;2.97;;
11962;SDS011;62678;52.130;5.584;2023-12-28T01:27:54;7.15;;;3.17;;
11962;SDS011;62678;52.130;5.584;2023-12-28T01:30:21;6.50;;;3.35;;
11962;SDS011;62678;52.130;5.584;2023-12-28T01:32:48;5.60;;;2.97;;
11962;SDS011;62678;52.130;5.584;2023-12-28T01:35:15;6.78;;;3.17;;
11962;SDS011;62678;52.130;5.584;2023-12-28T01:37:44;7.30;;;3.03;;
11962;SDS011;62678;52.130;5.584;2023-12-28T01:40:11;8.32;;;3.60;;
11962;SDS011;62678;52.130;5.584;2023-12-28T01:42:38;6.00;;;3.17;;
11962;SDS011;62678;52.130;5.584;2023-12-28T01:45:06;7.88;;;3.10;;
11962;SDS011;62678;52.130;5.584;2023-12-28T01:47:33;4.82;;;3.22;;
11962;SDS011;62678;52.130;5.584;2023-12-28T01:50:01;5.68;;;3.08;;
11962;SDS011;62678;52.130;5.584;2023-12-28T01:52:29;7.50;;;3.30;;
11962;SDS011;62678;52.130;5.584;2023-12-28T01:54:56;7.35;;;3.20;;
11962;SDS011;62678;52.130;5.584;2023-12-28T01:57:23;6.82;;;3.00;;
11962;SDS011;62678;52.130;5.584;2023-12-28T01:59:51;9.38;;;3.15;;
11962;SDS011;62678;52.130;5.584;2023-12-28T02:02:19;6.75;;;3.35;;
11962;SDS011;62678;52.130;5.584;2023-12-28T02:04:47;6.90;;;3.15;;
11962;SDS011;62678;52.130;5.584;2023-12-28T02:07:14;7.00;;;3.40;;
11962;SDS011;62678;52.130;5.584;2023-12-28T02:09:41;6.43;;;3.40;;
11962;SDS011;62678;52.130;5.584;2023-12-28T02:12:10;8.68;;;3.40;;
11962;SDS011;62678;52.130;5.584;2023-12-28T02:14:37;5.80;;;3.17;;
11962;SDS011;62678;52.130;5.584;2023-12-28T02:17:06;8.65;;;3.60;;
11962;SDS011;62678;52.130;5.584;2023-12-28T02:19:39;6.70;;;3.08;;
11962;SDS011;62678;52.130;5.584;2023-12-28T02:22:07;7.43;;;3.30;;
11962;SDS011;62678;52.130;5.584;2023-12-28T02:27:18;10.07;;;3.38;;
11962;SDS011;62678;52.130;5.584;2023-12-28T02:29:45;6.55;;;2.70;;
11962;SDS011;62678;52.130;5.584;2023-12-28T02:32:12;6.35;;;2.92;;
11962;SDS011;62678;52.130;5.584;2023-12-28T02:34:40;6.47;;;3.03;;
11962;SDS011;62678;52.130;5.584;2023-12-28T02:37:10;8.25;;;3.38;;
11962;SDS011;62678;52.130;5.584;2023-12-28T02:39:39;7.22;;;2.88;;
11962;SDS011;62678;52.130;5.584;2023-12-28T02:42:07;6.88;;;3.28;;
11962;SDS011;62678;52.130;5.584;2023-12-28T02:44:36;7.32;;;3.50;;
11962;SDS011;62678;52.130;5.584;2023-12-28T02:47:03;5.80;;;2.65;;
11962;SDS011;62678;52.130;5.584;2023-12-28T02:49:30;8.68;;;2.60;;
11962;SDS011;62678;52.130;5.584;2023-12-28T02:51:57;10.27;;;2.92;;
11962;SDS011;62678;52.130;5.584;2023-12-28T02:54:24;6.35;;;2.53;;
11962;SDS011;62678;52.130;5.584;2023-12-28T02:56:52;5.70;;;2.47;;
11962;SDS011;62678;52.130;5.584;2023-12-28T02:59:19;8.82;;;2.45;;
11962;SDS011;62678;52.130;5.584;2023-12-28T03:01:47;10.85;;;2.72;;
11962;SDS011;62678;52.130;5.584;2023-12-28T03:04:14;7.85;;;2.50;;
11962;SDS011;62678;52.130;5.584;2023-12-28T03:06:41;5.72;;;2.15;;
11962;SDS011;62678;52.130;5.584;2023-12-28T03:09:09;6.07;;;2.88;;
11962;SDS011;62678;52.130;5.584;2023-12-28T03:11:36;9.23;;;2.60;;
11962;SDS011;62678;52.130;5.584;2023-12-28T03:14:03;7.78;;;2.47;;
11962;SDS011;62678;52.130;5.584;2023-12-28T03:16:30;8.77;;;2.30;;
11962;SDS011;62678;52.130;5.584;2023-12-28T03:18:59;7.25;;;2.17;;
11962;SDS011;62678;52.130;5.584;2023-12-28T03:21:26;7.32;;;2.17;;
11962;SDS011;62678;52.130;5.584;2023-12-28T03:23:53;9.68;;;2.20;;
11962;SDS011;62678;52.130;5.584;2023-12-28T03:26:20;7.35;;;2.42;;
11962;SDS011;62678;52.130;5.584;2023-12-28T03:28:47;5.03;;;2.00;;
11962;SDS011;62678;52.130;5.584;2023-12-28T03:31:14;5.60;;;2.38;;
11962;SDS011;62678;52.130;5.584;2023-12-28T03:33:41;10.63;;;2.00;;
11962;SDS011;62678;52.130;5.584;2023-12-28T03:36:18;9.60;;;2.33;;
11962;SDS011;62678;52.130;5.584;2023-12-28T03:38:46;7.18;;;2.15;;
11962;SDS011;62678;52.130;5.584;2023-12-28T03:41:16;10.75;;;2.15;;
11962;SDS011;62678;52.130;5.584;2023-12-28T03:43:43;7.50;;;2.20;;
11962;SDS011;62678;52.130;5.584;2023-12-28T03:46:11;7.55;;;2.35;;
11962;SDS011;62678;52.130;5.584;2023-12-28T03:48:38;6.65;;;1.73;;
11962;SDS011;62678;52.130;5.584;2023-12-28T03:51:05;9.45;;;2.20;;
11962;SDS011;62678;52.130;5.584;2023-12-28T03:53:34;5.10;;;2.13;;
11962;SDS011;62678;52.130;5.584;2023-12-28T03:56:01;6.57;;;2.00;;
11962;SDS011;62678;52.130;5.584;2023-12-28T03:58:28;7.03;;;2.03;;
11962;SDS011;62678;52.130;5.584;2023-12-28T04:00:56;8.43;;;2.35;;
11962;SDS011;62678;52.130;5.584;2023-12-28T04:03:23;8.95;;;2.50;;
11962;SDS011;62678;52.130;5.584;2023-12-28T04:05:50;8.55;;;2.47;;
11962;SDS011;62678;52.130;5.584;2023-12-28T04:08:17;9.73;;;2.00;;
11962;SDS011;62678;52.130;5.584;2023-12-28T04:10:46;12.38;;;2.70;;
11962;SDS011;62678;52.130;5.584;2023-12-28T04:13:13;9.82;;;2.63;;
11962;SDS011;62678;52.130;5.584;2023-12-28T04:15:41;12.48;;;2.90;;
11962;SDS011;62678;52.130;5.584;2023-12-28T04:18:09;9.77;;;2.45;;
11962;SDS011;62678;52.130;5.584;2023-12-28T04:20:36;9.85;;;2.33;;
11962;SDS011;62678;52.130;5.584;2023-12-28T04:23:03;7.20;;;2.20;;
11962;SDS011;62678;52.130;5.584;2023-12-28T04:25:30;7.60;;;1.92;;
11962;SDS011;62678;52.130;5.584;2023-12-28T04:27:59;9.02;;;2.50;;
11962;SDS011;62678;52.130;5.584;2023-12-28T04:30:26;9.48;;;2.88;;
11962;SDS011;62678;52.130;5.584;2023-12-28T04:32:53;11.38;;;2.63;;
11962;SDS011;62678;52.130;5.584;2023-12-28T04:35:20;11.05;;;2.72;;
11962;SDS011;62678;52.130;5.584;2023-12-28T04:37:47;10.05;;;2.47;;
11962;SDS011;62678;52.130;5.584;2023-12-28T04:40:15;8.55;;;2.63;;
11962;SDS011;62678;52.130;5.584;2023-12-28T04:42:42;14.10;;;2.50;;
11962;SDS011;62678;52.130;5.584;2023-12-28T04:45:10;10.50;;;2.75;;
11962;SDS011;62678;52.130;5.584;2023-12-28T04:47:38;12.40;;;2.88;;
11962;SDS011;62678;52.130;5.584;2023-12-28T04:50:06;10.07;;;2.20;;
11962;SDS011;62678;52.130;5.584;2023-12-28T04:52:33;11.55;;;2.70;;
11962;SDS011;62678;52.130;5.584;2023-12-28T04:55:00;13.23;;;3.13;;
11962;SDS011;62678;52.130;5.584;2023-12-28T04:57:27;10.35;;;2.30;;
11962;SDS011;62678;52.130;5.584;2023-12-28T04:59:54;11.70;;;2.45;;
11962;SDS011;62678;52.130;5.584;2023-12-28T05:02:23;11.40;;;2.30;;
11962;SDS011;62678;52.130;5.584;2023-12-28T05:04:50;11.95;;;2.78;;
11962;SDS011;62678;52.130;5.584;2023-12-28T05:07:17;11.75;;;2.58;;
11962;SDS011;62678;52.130;5.584;2023-12-28T05:09:44;13.88;;;2.40;;
11962;SDS011;62678;52.130;5.584;2023-12-28T05:12:11;10.73;;;2.20;;
11962;SDS011;62678;52.130;5.584;2023-12-28T05:14:39;12.77;;;2.20;;
11962;SDS011;62678;52.130;5.584;2023-12-28T05:17:06;10.73;;;3.20;;
11962;SDS011;62678;52.130;5.584;2023-12-28T05:19:34;10.50;;;2.92;;
11962;SDS011;62678;52.130;5.584;2023-12-28T05:22:01;10.60;;;2.65;;
11962;SDS011;62678;52.130;5.584;2023-12-28T05:24:31;11.30;;;2.22;;
11962;SDS011;62678;52.130;5.584;2023-12-28T05:26:59;12.95;;;2.58;;
11962;SDS011;62678;52.130;5.584;2023-12-28T05:29:26;12.77;;;3.00;;
11962;SDS011;62678;52.130;5.584;2023-12-28T05:31:53;13.82;;;2.92;;
11962;SDS011;62678;52.130;5.584;2023-12-28T05:34:20;13.43;;;2.45;;
11962;SDS011;62678;52.130;5.584;2023-12-28T05:36:49;11.75;;;2.65;;
11962;SDS011;62678;52.130;5.584;2023-12-28T05:39:16;10.80;;;2.42;;
11962;SDS011;62678;52.130;5.584;2023-12-28T05:41:43;13.48;;;2.58;;
11962;SDS011;62678;52.130;5.584;2023-12-28T05:44:12;11.98;;;2.38;;
11962;SDS011;62678;52.130;5.584;2023-12-28T05:46:40;10.10;;;2.65;;
11962;SDS011;62678;52.130;5.584;2023-12-28T05:49:07;11.55;;;2.63;;
11962;SDS011;62678;52.130;5.584;2023-12-28T05:51:37;13.60;;;3.33;;
11962;SDS011;62678;52.130;5.584;2023-12-28T05:54:06;10.88;;;2.30;;
11962;SDS011;62678;52.130;5.584;2023-12-28T05:56:34;8.75;;;2.20;;
11962;SDS011;62678;52.130;5.584;2023-12-28T05:59:01;13.05;;;2.70;;
11962;SDS011;62678;52.130;5.584;2023-12-28T06:01:28;12.48;;;2.78;;
11962;SDS011;62678;52.130;5.584;2023-12-28T06:03:55;14.00;;;2.80;;
11962;SDS011;62678;52.130;5.584;2023-12-28T06:06:22;17.15;;;2.75;;
11962;SDS011;62678;52.130;5.584;2023-12-28T06:08:49;10.15;;;3.33;;
11962;SDS011;62678;52.130;5.584;2023-12-28T06:11:18;10.27;;;2.58;;
11962;SDS011;62678;52.130;5.584;2023-12-28T06:13:45;11.85;;;2.75;;
11962;SDS011;62678;52.130;5.584;2023-12-28T06:16:12;12.95;;;2.65;;
11962;SDS011;62678;52.130;5.584;2023-12-28T06:18:40;12.70;;;2.47;;
11962;SDS011;62678;52.130;5.584;2023-12-28T06:21:07;13.25;;;2.40;;
11962;SDS011;62678;52.130;5.584;2023-12-28T06:23:34;14.80;;;3.13;;
11962;SDS011;62678;52.130;5.584;2023-12-28T06:26:05;13.68;;;2.22;;
11962;SDS011;62678;52.130;5.584;2023-12-28T06:28:34;17.08;;;3.03;;
11962;SDS011;62678;52.130;5.584;2023-12-28T06:31:01;15.52;;;2.65;;
11962;SDS011;62678;52.130;5.584;2023-12-28T06:33:29;12.40;;;2.60;;
11962;SDS011;62678;52.130;5.584;2023-12-28T06:35:56;14.15;;;2.80;;
11962;SDS011;62678;52.130;5.584;2023-12-28T06:38:24;16.33;;;3.03;;
11962;SDS011;62678;52.130;5.584;2023-12-28T06:40:51;16.40;;;3.00;;
11962;SDS011;62678;52.130;5.584;2023-12-28T06:43:18;13.48;;;2.63;;
11962;SDS011;62678;52.130;5.584;2023-12-28T06:45:47;19.33;;;3.20;;
11962;SDS011;62678;52.130;5.584;2023-12-28T06:48:14;20.10;;;3.50;;
11962;SDS011;62678;52.130;5.584;2023-12-28T06:50:41;18.30;;;3.08;;
11962;SDS011;62678;52.130;5.584;2023-12-28T06:53:08;17.38;;;2.72;;
11962;SDS011;62678;52.130;5.584;2023-12-28T06:55:35;17.45;;;3.25;;
11962;SDS011;62678;52.130;5.584;2023-12-28T06:58:02;17.10;;;2.60;;
11962;SDS011;62678;52.130;5.584;2023-12-28T07:00:31;14.70;;;2.60;;
11962;SDS011;62678;52.130;5.584;2023-12-28T07:02:59;17.88;;;3.00;;
11962;SDS011;62678;52.130;5.584;2023-12-28T07:05:26;12.43;;;2.60;;
11962;SDS011;62678;52.130;5.584;2023-12-28T07:07:53;17.27;;;3.42;;
11962;SDS011;62678;52.130;5.584;2023-12-28T07:10:21;20.33;;;3.05;;
11962;SDS011;62678;52.130;5.584;2023-12-28T07:12:48;16.23;;;3.20;;
11962;SDS011;62678;52.130;5.584;2023-12-28T07:15:15;16.50;;;3.22;;
11962;SDS011;62678;52.130;5.584;2023-12-28T07:17:42;20.40;;;3.10;;
11962;SDS011;62678;52.130;5.584;2023-12-28T07:20:11;18.83;;;4.07;;
11962;SDS011;62678;52.130;5.584;2023-12-28T07:22:38;18.88;;;3.13;;
11962;SDS011;62678;52.130;5.584;2023-12-28T07:25:06;16.63;;;3.03;;
11962;SDS011;62678;52.130;5.584;2023-12-28T07:27:33;17.13;;;3.25;;
11962;SDS011;62678;52.130;5.584;2023-12-28T07:30:01;19.20;;;3.30;;
11962;SDS011;62678;52.130;5.584;2023-12-28T07:32:29;13.95;;;2.97;;
11962;SDS011;62678;52.130;5.584;2023-12-28T07:34:56;24.75;;;3.83;;
11962;SDS011;62678;52.130;5.584;2023-12-28T07:37:25;21.80;;;3.38;;
11962;SDS011;62678;52.130;5.584;2023-12-28T07:39:52;16.92;;;2.78;;
11962;SDS011;62678;52.130;5.584;2023-12-28T07:42:19;18.23;;;3.25;;
11962;SDS011;62678;52.130;5.584;2023-12-28T07:44:46;19.85;;;3.90;;
11962;SDS011;62678;52.130;5.584;2023-12-28T07:47:13;18.90;;;5.30;;
11962;SDS011;62678;52.130;5.584;2023-12-28T07:49:41;15.35;;;2.72;;
11962;SDS011;62678;52.130;5.584;2023-12-28T07:52:08;22.40;;;3.22;;
11962;SDS011;62678;52.130;5.584;2023-12-28T07:54:37;14.27;;;2.80;;
11962;SDS011;62678;52.130;5.584;2023-12-28T07:57:04;14.68;;;2.85;;
11962;SDS011;62678;52.130;5.584;2023-12-28T07:59:31;17.42;;;3.00;;
11962;SDS011;62678;52.130;5.584;2023-12-28T08:01:58;18.35;;;3.38;;
11962;SDS011;62678;52.130;5.584;2023-12-28T08:04:26;18.17;;;3.25;;
11962;SDS011;62678;52.130;5.584;2023-12-28T08:06:53;15.60;;;3.05;;
11962;SDS011;62678;52.130;5.584;2023-12-28T08:09:20;14.73;;;2.97;;
11962;SDS011;62678;52.130;5.584;2023-12-28T08:11:49;14.60;;;3.33;;
11962;SDS011;62678;52.130;5.584;2023-12-28T08:14:16;19.05;;;3.25;;
11962;SDS011;62678;52.130;5.584;2023-12-28T08:16:44;19.75;;;3.05;;
11962;SDS011;62678;52.130;5.584;2023-12-28T08:19:11;20.52;;;3.92;;
11962;SDS011;62678;52.130;5.584;2023-12-28T08:21:38;15.98;;;3.25;;
11962;SDS011;62678;52.130;5.584;2023-12-28T08:24:05;20.42;;;3.45;;
11962;SDS011;62678;52.130;5.584;2023-12-28T08:26:32;19.45;;;3.35;;
11962;SDS011;62678;52.130;5.584;2023-12-28T08:29:01;21.20;;;3.53;;
11962;SDS011;62678;52.130;5.584;2023-12-28T08:31:28;20.33;;;3.38;;
11962;SDS011;62678;52.130;5.584;2023-12-28T08:33:55;25.77;;;3.60;;
11962;SDS011;62678;52.130;5.584;2023-12-28T08:36:22;23.25;;;3.40;;
11962;SDS011;62678;52.130;5.584;2023-12-28T08:38:50;21.73;;;6.65;;
11962;SDS011;62678;52.130;5.584;2023-12-28T08:41:17;23.13;;;7.57;;
11962;SDS011;62678;52.130;5.584;2023-12-28T08:43:44;29.38;;;9.20;;
11962;SDS011;62678;52.130;5.584;2023-12-28T08:46:13;34.88;;;11.65;;
11962;SDS011;62678;52.130;5.584;2023-12-28T08:48:41;21.45;;;5.00;;
11962;SDS011;62678;52.130;5.584;2023-12-28T08:51:09;18.13;;;3.63;;
11962;SDS011;62678;52.130;5.584;2023-12-28T08:53:36;21.42;;;2.97;;
11962;SDS011;62678;52.130;5.584;2023-12-28T08:56:12;19.45;;;3.30;;
11962;SDS011;62678;52.130;5.584;2023-12-28T08:58:40;19.75;;;3.00;;
11962;SDS011;62678;52.130;5.584;2023-12-28T09:01:07;20.88;;;4.25;;
11962;SDS011;62678;52.130;5.584;2023-12-28T09:03:35;16.80;;;3.03;;
11962;SDS011;62678;52.130;5.584;2023-12-28T09:06:02;16.95;;;3.20;;
11962;SDS011;62678;52.130;5.584;2023-12-28T09:08:30;19.90;;;3.28;;
11962;SDS011;62678;52.130;5.584;2023-12-28T09:10:57;20.50;;;3.33;;
11962;SDS011;62678;52.130;5.584;2023-12-28T09:13:24;15.77;;;2.90;;
11962;SDS011;62678;52.130;5.584;2023-12-28T09:15:51;20.98;;;3.65;;
11962;SDS011;62678;52.130;5.584;2023-12-28T09:18:18;19.33;;;3.40;;
11962;SDS011;62678;52.130;5.584;2023-12-28T09:20:47;15.18;;;3.28;;
11962;SDS011;62678;52.130;5.584;2023-12-28T09:23:15;21.23;;;3.53;;
11962;SDS011;62678;52.130;5.584;2023-12-28T09:25:42;17.52;;;3.10;;
11962;SDS011;62678;52.130;5.584;2023-12-28T09:28:09;19.52;;;2.90;;
11962;SDS011;62678;52.130;5.584;2023-12-28T09:30:36;20.38;;;3.50;;
11962;SDS011;62678;52.130;5.584;2023-12-28T09:33:03;24.02;;;4.05;;
11962;SDS011;62678;52.130;5.584;2023-12-28T09:35:31;18.85;;;3.30;;
11962;SDS011;62678;52.130;5.584;2023-12-28T09:37:59;17.70;;;3.33;;
11962;SDS011;62678;52.130;5.584;2023-12-28T09:40:26;20.65;;;3.38;;
11962;SDS011;62678;52.130;5.584;2023-12-28T09:42:56;16.88;;;3.95;;
11962;SDS011;62678;52.130;5.584;2023-12-28T09:45:24;23.00;;;3.13;;
11962;SDS011;62678;52.130;5.584;2023-12-28T09:47:52;21.85;;;3.90;;
11962;SDS011;62678;52.130;5.584;2023-12-28T09:50:19;17.95;;;3.58;;
11962;SDS011;62678;52.130;5.584;2023-12-28T09:52:47;17.85;;;3.28;;
11962;SDS011;62678;52.130;5.584;2023-12-28T09:55:15;15.55;;;3.45;;
11962;SDS011;62678;52.130;5.584;2023-12-28T09:57:42;20.23;;;4.03;;
11962;SDS011;62678;52.130;5.584;2023-12-28T10:00:10;23.30;;;3.65;;
11962;SDS011;62678;52.130;5.584;2023-12-28T10:02:38;20.60;;;3.55;;
11962;SDS011;62678;52.130;5.584;2023-12-28T10:05:06;22.15;;;3.65;;
11962;SDS011;62678;52.130;5.584;2023-12-28T10:07:39;22.17;;;3.75;;
11962;SDS011;62678;52.130;5.584;2023-12-28T10:10:07;18.77;;;3.70;;
11962;SDS011;62678;52.130;5.584;2023-12-28T10:12:35;20.70;;;3.65;;
11962;SDS011;62678;52.130;5.584;2023-12-28T10:15:03;19.92;;;3.13;;
11962;SDS011;62678;52.130;5.584;2023-12-28T10:17:32;19.33;;;3.33;;
11962;SDS011;62678;52.130;5.584;2023-12-28T10:19:59;20.65;;;3.00;;
11962;SDS011;62678;52.130;5.584;2023-12-28T10:22:29;24.77;;;3.70;;
11962;SDS011;62678;52.130;5.584;2023-12-28T10:24:57;21.67;;;3.63;;
11962;SDS011;62678;52.130;5.584;2023-12-28T10:27:24;20.92;;;3.83;;
11962;SDS011;62678;52.130;5.584;2023-12-28T10:29:54;20.33;;;3.60;;
11962;SDS011;62678;52.130;5.584;2023-12-28T10:32:21;15.20;;;3.28;;
11962;SDS011;62678;52.130;5.584;2023-12-28T10:34:50;19.55;;;3.20;;
11962;SDS011;62678;52.130;5.584;2023-12-28T10:37:19;21.63;;;3.75;;
11962;SDS011;62678;52.130;5.584;2023-12-28T10:39:47;21.27;;;4.47;;
11962;SDS011;62678;52.130;5.584;2023-12-28T10:42:16;18.85;;;3.42;;
11962;SDS011;62678;52.130;5.584;2023-12-28T10:44:49;36.47;;;12.35;;
11962;SDS011;62678;52.130;5.584;2023-12-28T10:47:21;21.80;;;3.92;;
11962;SDS011;62678;52.130;5.584;2023-12-28T10:49:49;22.80;;;3.63;;
11962;SDS011;62678;52.130;5.584;2023-12-28T10:52:18;17.50;;;2.95;;
11962;SDS011;62678;52.130;5.584;2023-12-28T10:54:47;18.13;;;3.63;;
11962;SDS011;62678;52.130;5.584;2023-12-28T10:57:17;24.50;;;3.80;;
11962;SDS011;62678;52.130;5.584;2023-12-28T10:59:51;25.63;;;3.72;;
11962;SDS011;62678;52.130;5.584;2023-12-28T11:02:21;17.75;;;3.42;;
11962;SDS011;62678;52.130;5.584;2023-12-28T11:04:53;22.02;;;3.83;;
11962;SDS011;62678;52.130;5.584;2023-12-28T11:07:20;19.35;;;3.25;;
11962;SDS011;62678;52.130;5.584;2023-12-28T11:09:48;17.08;;;3.40;;
11962;SDS011;62678;52.130;5.584;2023-12-28T11:12:15;17.23;;;4.05;;
11962;SDS011;62678;52.130;5.584;2023-12-28T11:14:43;22.42;;;5.10;;
11962;SDS011;62678;52.130;5.584;2023-12-28T11:17:11;20.23;;;3.58;;
11962;SDS011;62678;52.130;5.584;2023-12-28T11:19:41;21.60;;;3.33;;
11962;SDS011;62678;52.130;5.584;2023-12-28T11:22:09;17.92;;;3.80;;
11962;SDS011;62678;52.130;5.584;2023-12-28T11:24:36;15.98;;;3.42;;
11962;SDS011;62678;52.130;5.584;2023-12-28T11:27:03;19.95;;;3.90;;
11962;SDS011;62678;52.130;5.584;2023-12-28T11:29:31;21.02;;;3.20;;
11962;SDS011;62678;52.130;5.584;2023-12-28T11:31:59;19.10;;;3.10;;
11962;SDS011;62678;52.130;5.584;2023-12-28T11:34:28;22.10;;;3.97;;
11962;SDS011;62678;52.130;5.584;2023-12-28T11:36:58;24.85;;;3.58;;
11962;SDS011;62678;52.130;5.584;2023-12-28T11:39:29;17.33;;;3.42;;
11962;SDS011;62678;52.130;5.584;2023-12-28T11:42:01;23.10;;;3.92;;
11962;SDS011;62678;52.130;5.584;2023-12-28T11:44:29;19.25;;;3.83;;
11962;SDS011;62678;52.130;5.584;2023-12-28T11:46:56;20.45;;;3.33;;
11962;SDS011;62678;52.130;5.584;2023-12-28T11:49:26;24.67;;;3.35;;
11962;SDS011;62678;52.130;5.584;2023-12-28T11:51:55;21.70;;;3.90;;
11962;SDS011;62678;52.130;5.584;2023-12-28T11:56:53;22.48;;;4.25;;
11962;SDS011;62678;52.130;5.584;2023-12-28T11:59:20;19.70;;;4.10;;
11962;SDS011;62678;52.130;5.584;2023-12-28T12:01:50;19.65;;;3.30;;
11962;SDS011;62678;52.130;5.584;2023-12-28T12:04:17;22.85;;;3.50;;
11962;SDS011;62678;52.130;5.584;2023-12-28T12:06:44;18.33;;;3.60;;
11962;SDS011;62678;52.130;5.584;2023-12-28T12:09:12;22.42;;;3.33;;
11962;SDS011;62678;52.130;5.584;2023-12-28T12:11:40;22.33;;;3.50;;
11962;SDS011;62678;52.130;5.584;2023-12-28T12:14:09;26.85;;;4.28;;
11962;SDS011;62678;52.130;5.584;2023-12-28T12:16:36;20.73;;;3.95;;
11962;SDS011;62678;52.130;5.584;2023-12-28T12:19:03;18.52;;;3.38;;
11962;SDS011;62678;52.130;5.584;2023-12-28T12:21:32;25.17;;;4.03;;
11962;SDS011;62678;52.130;5.584;2023-12-28T12:23:59;20.88;;;3.50;;
11962;SDS011;62678;52.130;5.584;2023-12-28T12:26:27;18.52;;;3.33;;
11962;SDS011;62678;52.130;5.584;2023-12-28T12:28:55;23.25;;;3.28;;
11962;SDS011;62678;52.130;5.584;2023-12-28T12:31:24;18.17;;;3.83;;
11962;SDS011;62678;52.130;5.584;2023-12-28T12:33:51;31.38;;;8.15;;
11962;SDS011;62678;52.130;5.584;2023-12-28T12:36:18;25.60;;;5.35;;
11962;SDS011;62678;52.130;5.584;2023-12-28T12:38:47;28.15;;;5.55;;
11962;SDS011;62678;52.130;5.584;2023-12-28T12:41:14;21.55;;;5.07;;
11962;SDS011;62678;52.130;5.584;2023-12-28T12:43:41;25.77;;;6.32;;
11962;SDS011;62678;52.130;5.584;2023-12-28T12:46:08;20.40;;;3.60;;
11962;SDS011;62678;52.130;5.584;2023-12-28T12:48:37;15.13;;;3.00;;
11962;SDS011;62678;52.130;5.584;2023-12-28T12:51:05;21.13;;;4.38;;
11962;SDS011;62678;52.130;5.584;2023-12-28T12:53:33;20.75;;;3.90;;
11962;SDS011;62678;52.130;5.584;2023-12-28T12:56:00;19.83;;;4.10;;
11962;SDS011;62678;52.130;5.584;2023-12-28T12:58:27;24.33;;;5.50;;
11962;SDS011;62678;52.130;5.584;2023-12-28T13:00:56;20.38;;;5.55;;
11962;SDS011;62678;52.130;5.584;2023-12-28T13:03:27;19.35;;;4.40;;
11962;SDS011;62678;52.130;5.584;2023-12-28T13:05:56;21.08;;;4.45;;
11962;SDS011;62678;52.130;5.584;2023-12-28T13:08:23;17.08;;;4.53;;
11962;SDS011;62678;52.130;5.584;2023-12-28T13:10:50;21.42;;;4.40;;
11962;SDS011;62678;52.130;5.584;2023-12-28T13:13:17;22.65;;;3.70;;
11962;SDS011;62678;52.130;5.584;2023-12-28T13:15:44;28.10;;;4.10;;
11962;SDS011;62678;52.130;5.584;2023-12-28T13:18:12;20.05;;;4.72;;
11962;SDS011;62678;52.130;5.584;2023-12-28T13:20:39;24.80;;;4.38;;
11962;SDS011;62678;52.130;5.584;2023-12-28T13:23:09;23.13;;;3.75;;
11962;SDS011;62678;52.130;5.584;2023-12-28T13:25:36;23.30;;;3.47;;
11962;SDS011;62678;52.130;5.584;2023-12-28T13:28:03;22.35;;;4.40;;
11962;SDS011;62678;52.130;5.584;2023-12-28T13:30:31;23.15;;;4.68;;
11962;SDS011;62678;52.130;5.584;2023-12-28T13:32:58;22.58;;;5.15;;
11962;SDS011;62678;52.130;5.584;2023-12-28T13:35:25;22.30;;;5.68;;
11962;SDS011;62678;52.130;5.584;2023-12-28T13:37:52;21.23;;;5.03;;
11962;SDS011;62678;52.130;5.584;2023-12-28T13:40:21;22.27;;;5.15;;
11962;SDS011;62678;52.130;5.584;2023-12-28T13:42:48;26.38;;;5.63;;
11962;SDS011;62678;52.130;5.584;2023-12-28T13:45:16;20.13;;;4.95;;
11962;SDS011;62678;52.130;5.584;2023-12-28T13:47:43;23.02;;;4.35;;
11962;SDS011;62678;52.130;5.584;2023-12-28T13:50:10;17.60;;;4.88;;
11962;SDS011;62678;52.130;5.584;2023-12-28T13:52:38;21.38;;;5.57;;
11962;SDS011;62678;52.130;5.584;2023-12-28T13:55:05;20.67;;;4.22;;
11962;SDS011;62678;52.130;5.584;2023-12-28T13:57:34;19.92;;;3.92;;
11962;SDS011;62678;52.130;5.584;2023-12-28T14:00:01;22.75;;;4.25;;
11962;SDS011;62678;52.130;5.584;2023-12-28T14:02:30;17.88;;;3.28;;
11962;SDS011;62678;52.130;5.584;2023-12-28T14:04:58;16.45;;;3.72;;
11962;SDS011;62678;52.130;5.584;2023-12-28T14:07:25;18.42;;;4.03;;
11962;SDS011;62678;52.130;5.584;2023-12-28T14:09:52;20.00;;;3.85;;
11962;SDS011;62678;52.130;5.584;2023-12-28T14:12:19;22.42;;;3.65;;
11962;SDS011;62678;52.130;5.584;2023-12-28T14:14:48;21.35;;;4.03;;
11962;SDS011;62678;52.130;5.584;2023-12-28T14:17:15;27.25;;;4.10;;
11962;SDS011;62678;52.130;5.584;2023-12-28T14:19:44;22.83;;;3.67;;
11962;SDS011;62678;52.130;5.584;2023-12-28T14:22:12;15.13;;;3.53;;
11962;SDS011;62678;52.130;5.584;2023-12-28T14:24:39;24.40;;;3.42;;
11962;SDS011;62678;52.130;5.584;2023-12-28T14:27:07;24.90;;;4.00;;
11962;SDS011;62678;52.130;5.584;2023-12-28T14:29:36;23.85;;;4.35;;
11962;SDS011;62678;52.130;5.584;2023-12-28T14:32:06;17.48;;;3.35;;
11962;SDS011;62678;52.130;5.584;2023-12-28T14:34:33;23.30;;;3.70;;
11962;SDS011;62678;52.130;5.584;2023-12-28T14:37:01;27.73;;;4.35;;
11962;SDS011;62678;52.130;5.584;2023-12-28T14:39:28;16.77;;;2.95;;
11962;SDS011;62678;52.130;5.584;2023-12-28T14:41:55;21.10;;;3.80;;
11962;SDS011;62678;52.130;5.584;2023-12-28T14:44:28;16.15;;;3.33;;
11962;SDS011;62678;52.130;5.584;2023-12-28T14:46:55;33.58;;;8.00;;